Palermo, Italy
Current Conditions -  °F | °C
As of 9:20 AM on Friday 24 Oct 2014 (Local Time) from LICJ Reporting Station
Broken Clouds Broken Clouds  
Wind Chill: 66°   Ceiling: 4000
Heat Index: 66°   Visibility: 6mi
Dew Point: 54°   Wind: 15mph
Humidity: 64%   Direction: 30°NNE
Pressure: 29.8"   Gusts: NA
Location:  38.12°N, 13.36°E
Report Text: LICJ 240720Z 03013KT 360V060 9999 FEW025 BKN040 19/12 Q1009
Loading
Personal Weather Stations






























Interactive Weather Map
Tropical Storm Tracking
New forecast layout! Learn more

10-Day Weather Forecast

Advertisements
Track Severe Weather on mobile